Huvudsida
METAR-TAF:

METAR-TAF

Flygplatser :

Kemi, Finland

Kemi-Torneå flygplats

latitud: 65-47N, longitud: 024-35E, höjd: 15 m

Aktuellt väderrapport

Denna rapport gjordes för 10 minuter sedan, klockan 14:50 UTC
Vind 6 kt från ost/nordost, varierande mellan nordost och ost/sydost
Temperatur 3°C
Fuktighet 65%
Tryck 1003 hPa
Sikt 10 km eller mer
Få moln på en höjd av 2900 ft
Mulet på en höjd av 5900 ft

METAR: EFKE 211450Z AUTO 07006KT 040V110 9999 FEW029 OVC059 03/M03 Q1003

Tid: 18:00 (15:00 UTC)

Väderprognos

Denna rapport gjordes för 25 minuter sedan, klockan 14:35 UTC
Prognos gäller från 21 kl. 15 UTC till 21 kl. 24 UTC
Vind 5 kt från ost/nordost
Sikt 10 km eller mer
Brutna moln på en höjd av 2000 ft

TAF: EFKE 211435Z 2115/2124 07005KT 9999 BKN020

Aktuella väderrapporter och prognoser från 4000 flygplatser (METAR- och TAF-rapporter).

De tillgängliga stationerna syns som gula och röda prickar på kartan.

För musen över prickarna för att se namnen på stationerna.

Klicka sedan för att få väderrapporter och prognoser.

För att ändra kartan: Klicka på de gröna knapparna med ett svart kors på för att zooma in; den gröna knappen med ett streck på för att zooma ut; eller på de gröna pilarna för angränsande kartor.


METAR-TAF: